sensor_id;sensor_type;location;lat;lon;timestamp;P1;durP1;ratioP1;P2;durP2;ratioP2
27213;SDS011;14723;55.814;37.460;2022-11-20T00:02:10;18.13;;;8.07;;
27213;SDS011;14723;55.814;37.460;2022-11-20T00:08:22;18.48;;;8.75;;
27213;SDS011;14723;55.814;37.460;2022-11-20T00:11:28;18.45;;;8.52;;
27213;SDS011;14723;55.814;37.460;2022-11-20T00:14:33;17.45;;;9.13;;
27213;SDS011;14723;55.814;37.460;2022-11-20T00:17:41;14.43;;;8.00;;
27213;SDS011;14723;55.814;37.460;2022-11-20T00:20:46;12.18;;;6.95;;
27213;SDS011;14723;55.814;37.460;2022-11-20T00:23:52;18.55;;;8.18;;
27213;SDS011;14723;55.814;37.460;2022-11-20T00:26:58;16.27;;;8.30;;
27213;SDS011;14723;55.814;37.460;2022-11-20T00:30:03;19.30;;;8.82;;
27213;SDS011;14723;55.814;37.460;2022-11-20T00:33:18;16.58;;;8.20;;
27213;SDS011;14723;55.814;37.460;2022-11-20T00:36:23;17.60;;;8.00;;
27213;SDS011;14723;55.814;37.460;2022-11-20T00:39:29;17.10;;;8.45;;
27213;SDS011;14723;55.814;37.460;2022-11-20T00:42:34;17.27;;;8.38;;
27213;SDS011;14723;55.814;37.460;2022-11-20T00:45:39;17.30;;;7.82;;
27213;SDS011;14723;55.814;37.460;2022-11-20T00:48:47;13.27;;;7.75;;
27213;SDS011;14723;55.814;37.460;2022-11-20T00:51:52;16.40;;;7.72;;
27213;SDS011;14723;55.814;37.460;2022-11-20T00:54:57;16.27;;;8.13;;
27213;SDS011;14723;55.814;37.460;2022-11-20T00:58:03;15.68;;;7.55;;
27213;SDS011;14723;55.814;37.460;2022-11-20T01:01:15;13.43;;;7.45;;
27213;SDS011;14723;55.814;37.460;2022-11-20T01:04:23;12.98;;;7.75;;
27213;SDS011;14723;55.814;37.460;2022-11-20T01:07:28;14.03;;;8.17;;
27213;SDS011;14723;55.814;37.460;2022-11-20T01:10:34;17.00;;;8.32;;
27213;SDS011;14723;55.814;37.460;2022-11-20T01:13:39;12.98;;;6.82;;
27213;SDS011;14723;55.814;37.460;2022-11-20T01:16:46;18.58;;;8.65;;
27213;SDS011;14723;55.814;37.460;2022-11-20T01:19:54;16.20;;;7.88;;
27213;SDS011;14723;55.814;37.460;2022-11-20T01:22:59;16.80;;;8.65;;
27213;SDS011;14723;55.814;37.460;2022-11-20T01:26:05;18.67;;;8.25;;
27213;SDS011;14723;55.814;37.460;2022-11-20T01:29:12;15.88;;;7.97;;
27213;SDS011;14723;55.814;37.460;2022-11-20T01:32:17;13.40;;;7.57;;
27213;SDS011;14723;55.814;37.460;2022-11-20T01:35:25;16.05;;;8.50;;
27213;SDS011;14723;55.814;37.460;2022-11-20T01:38:30;13.55;;;6.97;;
27213;SDS011;14723;55.814;37.460;2022-11-20T01:41:36;12.63;;;6.95;;
27213;SDS011;14723;55.814;37.460;2022-11-20T01:44:54;14.70;;;7.40;;
27213;SDS011;14723;55.814;37.460;2022-11-20T01:47:59;11.57;;;6.63;;
27213;SDS011;14723;55.814;37.460;2022-11-20T01:51:10;12.98;;;7.25;;
27213;SDS011;14723;55.814;37.460;2022-11-20T01:54:18;13.55;;;7.25;;
27213;SDS011;14723;55.814;37.460;2022-11-20T01:57:24;14.23;;;6.75;;
27213;SDS011;14723;55.814;37.460;2022-11-20T02:00:30;13.57;;;6.55;;
27213;SDS011;14723;55.814;37.460;2022-11-20T02:03:36;16.35;;;6.57;;
27213;SDS011;14723;55.814;37.460;2022-11-20T02:06:44;11.82;;;6.15;;
27213;SDS011;14723;55.814;37.460;2022-11-20T02:09:50;13.20;;;6.63;;
27213;SDS011;14723;55.814;37.460;2022-11-20T02:12:59;13.05;;;7.10;;
27213;SDS011;14723;55.814;37.460;2022-11-20T02:16:19;12.05;;;6.55;;
27213;SDS011;14723;55.814;37.460;2022-11-20T02:19:26;11.20;;;6.15;;
27213;SDS011;14723;55.814;37.460;2022-11-20T02:22:35;18.25;;;6.82;;
27213;SDS011;14723;55.814;37.460;2022-11-20T02:25:45;14.73;;;7.35;;
27213;SDS011;14723;55.814;37.460;2022-11-20T02:28:52;11.18;;;6.15;;
27213;SDS011;14723;55.814;37.460;2022-11-20T02:31:57;13.13;;;6.80;;
27213;SDS011;14723;55.814;37.460;2022-11-20T02:35:08;13.02;;;6.32;;
27213;SDS011;14723;55.814;37.460;2022-11-20T02:38:14;16.98;;;6.78;;
27213;SDS011;14723;55.814;37.460;2022-11-20T02:41:22;12.75;;;7.22;;
27213;SDS011;14723;55.814;37.460;2022-11-20T02:44:35;14.15;;;6.70;;
27213;SDS011;14723;55.814;37.460;2022-11-20T02:47:40;13.43;;;6.57;;
27213;SDS011;14723;55.814;37.460;2022-11-20T02:50:45;13.55;;;6.65;;
27213;SDS011;14723;55.814;37.460;2022-11-20T02:53:51;13.43;;;6.82;;
27213;SDS011;14723;55.814;37.460;2022-11-20T02:56:58;12.52;;;6.15;;
27213;SDS011;14723;55.814;37.460;2022-11-20T03:00:04;12.70;;;6.15;;
27213;SDS011;14723;55.814;37.460;2022-11-20T03:03:10;15.75;;;6.28;;
27213;SDS011;14723;55.814;37.460;2022-11-20T03:06:16;15.15;;;6.53;;
27213;SDS011;14723;55.814;37.460;2022-11-20T03:09:21;13.35;;;5.95;;
27213;SDS011;14723;55.814;37.460;2022-11-20T03:12:29;10.27;;;5.78;;
27213;SDS011;14723;55.814;37.460;2022-11-20T03:15:35;11.63;;;6.43;;
27213;SDS011;14723;55.814;37.460;2022-11-20T03:18:41;12.18;;;5.80;;
27213;SDS011;14723;55.814;37.460;2022-11-20T03:21:46;13.38;;;5.63;;
27213;SDS011;14723;55.814;37.460;2022-11-20T03:24:51;13.82;;;6.60;;
27213;SDS011;14723;55.814;37.460;2022-11-20T03:27:59;9.90;;;5.82;;
27213;SDS011;14723;55.814;37.460;2022-11-20T03:31:08;13.85;;;6.20;;
27213;SDS011;14723;55.814;37.460;2022-11-20T03:34:13;13.50;;;6.40;;
27213;SDS011;14723;55.814;37.460;2022-11-20T03:37:18;12.60;;;6.00;;
27213;SDS011;14723;55.814;37.460;2022-11-20T03:40:23;12.60;;;5.63;;
27213;SDS011;14723;55.814;37.460;2022-11-20T03:43:31;13.25;;;6.78;;
27213;SDS011;14723;55.814;37.460;2022-11-20T03:46:37;11.98;;;6.53;;
27213;SDS011;14723;55.814;37.460;2022-11-20T03:49:42;12.43;;;6.30;;
27213;SDS011;14723;55.814;37.460;2022-11-20T03:52:47;12.82;;;6.63;;
27213;SDS011;14723;55.814;37.460;2022-11-20T03:55:53;12.73;;;6.50;;
27213;SDS011;14723;55.814;37.460;2022-11-20T03:59:00;13.75;;;7.00;;
27213;SDS011;14723;55.814;37.460;2022-11-20T04:02:05;11.90;;;6.03;;
27213;SDS011;14723;55.814;37.460;2022-11-20T04:05:11;14.23;;;6.40;;
27213;SDS011;14723;55.814;37.460;2022-11-20T04:08:16;14.75;;;7.15;;
27213;SDS011;14723;55.814;37.460;2022-11-20T04:11:22;11.90;;;6.15;;
27213;SDS011;14723;55.814;37.460;2022-11-20T04:14:30;13.35;;;6.15;;
27213;SDS011;14723;55.814;37.460;2022-11-20T04:17:35;12.13;;;6.50;;
27213;SDS011;14723;55.814;37.460;2022-11-20T04:20:41;16.95;;;7.72;;
27213;SDS011;14723;55.814;37.460;2022-11-20T04:23:46;14.95;;;7.20;;
27213;SDS011;14723;55.814;37.460;2022-11-20T04:26:51;15.43;;;6.55;;
27213;SDS011;14723;55.814;37.460;2022-11-20T04:29:59;13.02;;;6.57;;
27213;SDS011;14723;55.814;37.460;2022-11-20T04:33:04;15.57;;;6.57;;
27213;SDS011;14723;55.814;37.460;2022-11-20T04:36:10;13.88;;;6.63;;
27213;SDS011;14723;55.814;37.460;2022-11-20T04:39:16;14.57;;;6.97;;
27213;SDS011;14723;55.814;37.460;2022-11-20T04:42:21;14.85;;;6.53;;
27213;SDS011;14723;55.814;37.460;2022-11-20T04:45:35;13.57;;;6.60;;
27213;SDS011;14723;55.814;37.460;2022-11-20T04:48:40;14.70;;;6.88;;
27213;SDS011;14723;55.814;37.460;2022-11-20T04:51:46;12.00;;;6.75;;
27213;SDS011;14723;55.814;37.460;2022-11-20T04:54:51;14.02;;;6.88;;
27213;SDS011;14723;55.814;37.460;2022-11-20T04:57:57;15.50;;;7.72;;
27213;SDS011;14723;55.814;37.460;2022-11-20T05:01:06;16.52;;;7.13;;
27213;SDS011;14723;55.814;37.460;2022-11-20T05:04:11;14.15;;;6.95;;
27213;SDS011;14723;55.814;37.460;2022-11-20T05:07:17;16.20;;;8.52;;
27213;SDS011;14723;55.814;37.460;2022-11-20T05:10:22;14.43;;;7.20;;
27213;SDS011;14723;55.814;37.460;2022-11-20T05:13:27;16.25;;;7.05;;
27213;SDS011;14723;55.814;37.460;2022-11-20T05:16:36;14.80;;;6.93;;
27213;SDS011;14723;55.814;37.460;2022-11-20T05:19:41;15.27;;;7.38;;
27213;SDS011;14723;55.814;37.460;2022-11-20T05:22:52;16.58;;;7.15;;
27213;SDS011;14723;55.814;37.460;2022-11-20T05:29:06;24.05;;;8.00;;
27213;SDS011;14723;55.814;37.460;2022-11-20T05:32:13;15.75;;;8.40;;
27213;SDS011;14723;55.814;37.460;2022-11-20T05:35:19;16.90;;;8.88;;
27213;SDS011;14723;55.814;37.460;2022-11-20T05:38:24;19.60;;;8.88;;
27213;SDS011;14723;55.814;37.460;2022-11-20T05:41:29;19.92;;;8.43;;
27213;SDS011;14723;55.814;37.460;2022-11-20T05:44:34;18.02;;;8.43;;
27213;SDS011;14723;55.814;37.460;2022-11-20T05:47:42;19.00;;;9.50;;
27213;SDS011;14723;55.814;37.460;2022-11-20T05:50:47;18.00;;;7.80;;
27213;SDS011;14723;55.814;37.460;2022-11-20T05:53:52;21.08;;;8.90;;
27213;SDS011;14723;55.814;37.460;2022-11-20T05:56:57;18.92;;;8.57;;
27213;SDS011;14723;55.814;37.460;2022-11-20T06:00:03;18.63;;;8.30;;
27213;SDS011;14723;55.814;37.460;2022-11-20T06:03:11;17.80;;;8.25;;
27213;SDS011;14723;55.814;37.460;2022-11-20T06:06:16;19.48;;;8.40;;
27213;SDS011;14723;55.814;37.460;2022-11-20T06:09:22;15.68;;;7.75;;
27213;SDS011;14723;55.814;37.460;2022-11-20T06:12:27;19.77;;;8.63;;
27213;SDS011;14723;55.814;37.460;2022-11-20T06:15:32;19.85;;;8.98;;
27213;SDS011;14723;55.814;37.460;2022-11-20T06:18:40;19.33;;;8.35;;
27213;SDS011;14723;55.814;37.460;2022-11-20T06:21:47;16.25;;;8.13;;
27213;SDS011;14723;55.814;37.460;2022-11-20T06:24:52;19.40;;;8.95;;
27213;SDS011;14723;55.814;37.460;2022-11-20T06:27:57;19.75;;;9.02;;
27213;SDS011;14723;55.814;37.460;2022-11-20T06:31:03;20.67;;;9.13;;
27213;SDS011;14723;55.814;37.460;2022-11-20T06:34:11;19.00;;;9.30;;
27213;SDS011;14723;55.814;37.460;2022-11-20T06:37:16;22.48;;;10.50;;
27213;SDS011;14723;55.814;37.460;2022-11-20T06:40:21;19.80;;;9.77;;
27213;SDS011;14723;55.814;37.460;2022-11-20T06:43:28;18.48;;;9.55;;
27213;SDS011;14723;55.814;37.460;2022-11-20T06:46:33;22.05;;;9.43;;
27213;SDS011;14723;55.814;37.460;2022-11-20T06:49:41;18.58;;;9.02;;
27213;SDS011;14723;55.814;37.460;2022-11-20T06:52:46;20.27;;;9.67;;
27213;SDS011;14723;55.814;37.460;2022-11-20T06:55:51;20.90;;;9.50;;
27213;SDS011;14723;55.814;37.460;2022-11-20T06:58:57;21.80;;;10.10;;
27213;SDS011;14723;55.814;37.460;2022-11-20T07:01:57;19.10;;;9.48;;
27213;SDS011;14723;55.814;37.460;2022-11-20T07:05:06;21.58;;;9.32;;
27213;SDS011;14723;55.814;37.460;2022-11-20T07:08:11;23.55;;;10.25;;
27213;SDS011;14723;55.814;37.460;2022-11-20T07:11:17;21.77;;;10.23;;
27213;SDS011;14723;55.814;37.460;2022-11-20T07:14:22;20.77;;;9.60;;
27213;SDS011;14723;55.814;37.460;2022-11-20T07:17:27;26.60;;;9.70;;
27213;SDS011;14723;55.814;37.460;2022-11-20T07:20:35;21.15;;;10.00;;
27213;SDS011;14723;55.814;37.460;2022-11-20T07:23:40;21.08;;;10.65;;
27213;SDS011;14723;55.814;37.460;2022-11-20T07:26:46;20.95;;;9.40;;
27213;SDS011;14723;55.814;37.460;2022-11-20T07:29:51;25.05;;;10.75;;
27213;SDS011;14723;55.814;37.460;2022-11-20T07:32:56;28.50;;;11.50;;
27213;SDS011;14723;55.814;37.460;2022-11-20T07:36:05;25.67;;;10.52;;
27213;SDS011;14723;55.814;37.460;2022-11-20T07:39:10;24.05;;;11.38;;
27213;SDS011;14723;55.814;37.460;2022-11-20T07:42:15;20.05;;;10.10;;
27213;SDS011;14723;55.814;37.460;2022-11-20T07:45:22;23.13;;;11.38;;
27213;SDS011;14723;55.814;37.460;2022-11-20T07:48:30;27.52;;;10.52;;
27213;SDS011;14723;55.814;37.460;2022-11-20T07:51:38;21.50;;;11.23;;
27213;SDS011;14723;55.814;37.460;2022-11-20T07:54:43;28.33;;;11.80;;
27213;SDS011;14723;55.814;37.460;2022-11-20T07:57:53;27.40;;;12.20;;
27213;SDS011;14723;55.814;37.460;2022-11-20T08:01:01;29.05;;;11.93;;
27213;SDS011;14723;55.814;37.460;2022-11-20T08:04:07;34.17;;;12.60;;
27213;SDS011;14723;55.814;37.460;2022-11-20T08:07:15;35.05;;;12.48;;
27213;SDS011;14723;55.814;37.460;2022-11-20T08:10:21;32.95;;;12.20;;
27213;SDS011;14723;55.814;37.460;2022-11-20T08:13:27;31.10;;;12.13;;
27213;SDS011;14723;55.814;37.460;2022-11-20T08:16:45;26.40;;;11.80;;
27213;SDS011;14723;55.814;37.460;2022-11-20T08:19:50;22.02;;;11.30;;
27213;SDS011;14723;55.814;37.460;2022-11-20T08:23:02;27.70;;;12.30;;
27213;SDS011;14723;55.814;37.460;2022-11-20T08:26:08;31.17;;;12.68;;
27213;SDS011;14723;55.814;37.460;2022-11-20T08:29:13;26.05;;;11.65;;
27213;SDS011;14723;55.814;37.460;2022-11-20T08:32:18;36.30;;;13.40;;
27213;SDS011;14723;55.814;37.460;2022-11-20T08:35:23;31.38;;;12.82;;
27213;SDS011;14723;55.814;37.460;2022-11-20T08:38:31;29.15;;;12.98;;
27213;SDS011;14723;55.814;37.460;2022-11-20T08:41:36;36.45;;;14.13;;
27213;SDS011;14723;55.814;37.460;2022-11-20T08:44:42;28.83;;;13.93;;
27213;SDS011;14723;55.814;37.460;2022-11-20T08:47:47;31.30;;;13.35;;
27213;SDS011;14723;55.814;37.460;2022-11-20T08:50:52;30.17;;;12.88;;
27213;SDS011;14723;55.814;37.460;2022-11-20T08:54:00;27.70;;;13.13;;
27213;SDS011;14723;55.814;37.460;2022-11-20T08:57:05;36.10;;;14.73;;
27213;SDS011;14723;55.814;37.460;2022-11-20T09:00:11;34.38;;;14.25;;
27213;SDS011;14723;55.814;37.460;2022-11-20T09:03:16;31.10;;;14.75;;
27213;SDS011;14723;55.814;37.460;2022-11-20T09:06:22;33.72;;;14.85;;
27213;SDS011;14723;55.814;37.460;2022-11-20T09:09:30;37.05;;;15.80;;
27213;SDS011;14723;55.814;37.460;2022-11-20T09:12:35;34.13;;;15.18;;
27213;SDS011;14723;55.814;37.460;2022-11-20T09:15:40;31.63;;;15.32;;
27213;SDS011;14723;55.814;37.460;2022-11-20T09:18:45;30.42;;;14.23;;
27213;SDS011;14723;55.814;37.460;2022-11-20T09:22:11;33.30;;;15.30;;
27213;SDS011;14723;55.814;37.460;2022-11-20T09:25:18;47.50;;;17.17;;
27213;SDS011;14723;55.814;37.460;2022-11-20T09:28:24;42.58;;;18.08;;
27213;SDS011;14723;55.814;37.460;2022-11-20T09:31:29;40.42;;;15.75;;
27213;SDS011;14723;55.814;37.460;2022-11-20T09:34:34;43.63;;;16.70;;
27213;SDS011;14723;55.814;37.460;2022-11-20T09:37:39;32.70;;;14.73;;
27213;SDS011;14723;55.814;37.460;2022-11-20T09:40:48;38.58;;;15.93;;
27213;SDS011;14723;55.814;37.460;2022-11-20T09:43:58;38.58;;;16.05;;
27213;SDS011;14723;55.814;37.460;2022-11-20T09:47:07;40.15;;;16.70;;
27213;SDS011;14723;55.814;37.460;2022-11-20T09:50:18;43.35;;;15.98;;
27213;SDS011;14723;55.814;37.460;2022-11-20T09:53:27;40.80;;;16.23;;
27213;SDS011;14723;55.814;37.460;2022-11-20T09:56:39;41.13;;;16.35;;
27213;SDS011;14723;55.814;37.460;2022-11-20T09:59:45;37.13;;;15.15;;
27213;SDS011;14723;55.814;37.460;2022-11-20T10:02:52;36.95;;;15.13;;
27213;SDS011;14723;55.814;37.460;2022-11-20T10:06:00;39.08;;;15.70;;
27213;SDS011;14723;55.814;37.460;2022-11-20T10:09:13;40.00;;;16.25;;
27213;SDS011;14723;55.814;37.460;2022-11-20T10:12:22;44.55;;;17.05;;
27213;SDS011;14723;55.814;37.460;2022-11-20T10:15:32;40.25;;;15.45;;
27213;SDS011;14723;55.814;37.460;2022-11-20T10:18:42;42.72;;;15.68;;
27213;SDS011;14723;55.814;37.460;2022-11-20T10:21:52;40.63;;;16.95;;
27213;SDS011;14723;55.814;37.460;2022-11-20T10:25:01;33.60;;;14.98;;
27213;SDS011;14723;55.814;37.460;2022-11-20T10:28:18;45.45;;;17.08;;
27213;SDS011;14723;55.814;37.460;2022-11-20T10:31:27;40.22;;;15.82;;
27213;SDS011;14723;55.814;37.460;2022-11-20T10:34:33;40.17;;;16.65;;
27213;SDS011;14723;55.814;37.460;2022-11-20T10:37:41;40.58;;;15.63;;
27213;SDS011;14723;55.814;37.460;2022-11-20T10:40:48;36.05;;;16.05;;
27213;SDS011;14723;55.814;37.460;2022-11-20T10:44:00;32.50;;;13.90;;
27213;SDS011;14723;55.814;37.460;2022-11-20T10:47:11;38.20;;;15.90;;
27213;SDS011;14723;55.814;37.460;2022-11-20T10:50:18;36.50;;;15.48;;
27213;SDS011;14723;55.814;37.460;2022-11-20T10:53:36;35.25;;;14.88;;
27213;SDS011;14723;55.814;37.460;2022-11-20T10:56:45;43.65;;;16.20;;
27213;SDS011;14723;55.814;37.460;2022-11-20T10:59:58;36.65;;;15.45;;
27213;SDS011;14723;55.814;37.460;2022-11-20T11:03:10;38.38;;;15.57;;
27213;SDS011;14723;55.814;37.460;2022-11-20T11:06:20;30.33;;;13.90;;
27213;SDS011;14723;55.814;37.460;2022-11-20T11:09:28;37.15;;;15.18;;
27213;SDS011;14723;55.814;37.460;2022-11-20T11:12:36;29.15;;;12.50;;
27213;SDS011;14723;55.814;37.460;2022-11-20T11:15:43;25.45;;;10.90;;
27213;SDS011;14723;55.814;37.460;2022-11-20T11:18:49;25.17;;;11.50;;
27213;SDS011;14723;55.814;37.460;2022-11-20T11:21:54;30.45;;;12.10;;
27213;SDS011;14723;55.814;37.460;2022-11-20T11:25:00;24.88;;;11.48;;
27213;SDS011;14723;55.814;37.460;2022-11-20T11:28:18;29.23;;;12.55;;
27213;SDS011;14723;55.814;37.460;2022-11-20T11:31:30;27.88;;;11.20;;
27213;SDS011;14723;55.814;37.460;2022-11-20T11:34:36;22.95;;;10.23;;
27213;SDS011;14723;55.814;37.460;2022-11-20T11:37:41;22.27;;;9.60;;
27213;SDS011;14723;55.814;37.460;2022-11-20T11:40:46;20.75;;;9.57;;
27213;SDS011;14723;55.814;37.460;2022-11-20T11:43:52;22.00;;;10.93;;
27213;SDS011;14723;55.814;37.460;2022-11-20T11:47:17;22.23;;;10.75;;
27213;SDS011;14723;55.814;37.460;2022-11-20T11:50:25;21.75;;;9.25;;
27213;SDS011;14723;55.814;37.460;2022-11-20T11:53:31;22.42;;;8.55;;
27213;SDS011;14723;55.814;37.460;2022-11-20T11:56:37;19.48;;;9.00;;
27213;SDS011;14723;55.814;37.460;2022-11-20T11:59:46;26.00;;;10.95;;
27213;SDS011;14723;55.814;37.460;2022-11-20T12:03:00;21.77;;;9.88;;
27213;SDS011;14723;55.814;37.460;2022-11-20T12:06:10;22.67;;;10.30;;
27213;SDS011;14723;55.814;37.460;2022-11-20T12:09:16;21.83;;;9.13;;
27213;SDS011;14723;55.814;37.460;2022-11-20T12:12:24;25.88;;;11.27;;
27213;SDS011;14723;55.814;37.460;2022-11-20T12:18:39;22.13;;;10.38;;
27213;SDS011;14723;55.814;37.460;2022-11-20T12:24:52;21.30;;;10.35;;
27213;SDS011;14723;55.814;37.460;2022-11-20T12:31:09;22.38;;;10.50;;
27213;SDS011;14723;55.814;37.460;2022-11-20T12:37:48;20.45;;;10.75;;
27213;SDS011;14723;55.814;37.460;2022-11-20T12:40:56;23.10;;;9.52;;
27213;SDS011;14723;55.814;37.460;2022-11-20T12:44:07;21.98;;;10.30;;
27213;SDS011;14723;55.814;37.460;2022-11-20T12:47:28;22.63;;;11.35;;
27213;SDS011;14723;55.814;37.460;2022-11-20T12:50:39;28.17;;;11.98;;
27213;SDS011;14723;55.814;37.460;2022-11-20T12:57:49;25.55;;;10.90;;
27213;SDS011;14723;55.814;37.460;2022-11-20T13:00:56;28.75;;;12.55;;
27213;SDS011;14723;55.814;37.460;2022-11-20T13:04:05;23.23;;;10.40;;
27213;SDS011;14723;55.814;37.460;2022-11-20T13:07:13;26.15;;;11.60;;
27213;SDS011;14723;55.814;37.460;2022-11-20T13:10:20;25.35;;;11.07;;
27213;SDS011;14723;55.814;37.460;2022-11-20T13:13:33;24.95;;;11.82;;
27213;SDS011;14723;55.814;37.460;2022-11-20T13:16:42;26.05;;;13.15;;
27213;SDS011;14723;55.814;37.460;2022-11-20T13:19:51;27.38;;;11.90;;
27213;SDS011;14723;55.814;37.460;2022-11-20T13:22:57;24.67;;;12.55;;
27213;SDS011;14723;55.814;37.460;2022-11-20T13:26:03;21.05;;;10.85;;
27213;SDS011;14723;55.814;37.460;2022-11-20T13:29:11;26.02;;;11.10;;
27213;SDS011;14723;55.814;37.460;2022-11-20T13:32:18;19.40;;;9.80;;
27213;SDS011;14723;55.814;37.460;2022-11-20T13:35:24;20.85;;;10.73;;
27213;SDS011;14723;55.814;37.460;2022-11-20T13:38:49;22.88;;;10.82;;
27213;SDS011;14723;55.814;37.460;2022-11-20T13:41:55;26.90;;;11.68;;
27213;SDS011;14723;55.814;37.460;2022-11-20T13:45:08;23.98;;;11.43;;
27213;SDS011;14723;55.814;37.460;2022-11-20T13:48:19;23.05;;;10.75;;
27213;SDS011;14723;55.814;37.460;2022-11-20T13:51:28;24.25;;;10.70;;
27213;SDS011;14723;55.814;37.460;2022-11-20T13:54:57;23.42;;;10.73;;
27213;SDS011;14723;55.814;37.460;2022-11-20T13:58:11;28.05;;;11.48;;
27213;SDS011;14723;55.814;37.460;2022-11-20T14:01:24;23.43;;;11.13;;
27213;SDS011;14723;55.814;37.460;2022-11-20T14:04:33;24.40;;;11.40;;
27213;SDS011;14723;55.814;37.460;2022-11-20T14:07:39;21.65;;;10.63;;
27213;SDS011;14723;55.814;37.460;2022-11-20T14:10:46;19.20;;;10.10;;
27213;SDS011;14723;55.814;37.460;2022-11-20T14:13:55;18.02;;;9.35;;
27213;SDS011;14723;55.814;37.460;2022-11-20T14:20:26;20.00;;;10.38;;
27213;SDS011;14723;55.814;37.460;2022-11-20T14:23:33;24.20;;;10.77;;
27213;SDS011;14723;55.814;37.460;2022-11-20T14:26:38;32.25;;;10.82;;
27213;SDS011;14723;55.814;37.460;2022-11-20T14:29:46;20.58;;;10.30;;
27213;SDS011;14723;55.814;37.460;2022-11-20T14:32:53;22.05;;;10.23;;
27213;SDS011;14723;55.814;37.460;2022-11-20T14:36:02;24.75;;;11.18;;
27213;SDS011;14723;55.814;37.460;2022-11-20T14:39:08;23.85;;;10.73;;
27213;SDS011;14723;55.814;37.460;2022-11-20T14:42:14;31.15;;;12.43;;
27213;SDS011;14723;55.814;37.460;2022-11-20T14:45:20;22.52;;;11.88;;
27213;SDS011;14723;55.814;37.460;2022-11-20T14:48:28;28.83;;;12.90;;
27213;SDS011;14723;55.814;37.460;2022-11-20T14:51:37;24.90;;;11.68;;
27213;SDS011;14723;55.814;37.460;2022-11-20T14:54:43;22.90;;;11.02;;
27213;SDS011;14723;55.814;37.460;2022-11-20T14:57:53;24.17;;;11.07;;
27213;SDS011;14723;55.814;37.460;2022-11-20T15:01:00;28.73;;;12.32;;
27213;SDS011;14723;55.814;37.460;2022-11-20T15:04:06;24.33;;;11.35;;
27213;SDS011;14723;55.814;37.460;2022-11-20T15:07:22;25.73;;;10.77;;
27213;SDS011;14723;55.814;37.460;2022-11-20T15:10:28;21.33;;;10.70;;
27213;SDS011;14723;55.814;37.460;2022-11-20T15:13:34;21.35;;;10.20;;
27213;SDS011;14723;55.814;37.460;2022-11-20T15:16:41;22.55;;;10.35;;
27213;SDS011;14723;55.814;37.460;2022-11-20T15:19:46;26.33;;;11.20;;
27213;SDS011;14723;55.814;37.460;2022-11-20T15:22:54;20.80;;;10.15;;
27213;SDS011;14723;55.814;37.460;2022-11-20T15:25:59;26.63;;;12.10;;
27213;SDS011;14723;55.814;37.460;2022-11-20T15:29:04;23.75;;;10.73;;
27213;SDS011;14723;55.814;37.460;2022-11-20T15:32:10;25.27;;;10.77;;
27213;SDS011;14723;55.814;37.460;2022-11-20T15:35:15;23.55;;;10.05;;
27213;SDS011;14723;55.814;37.460;2022-11-20T15:38:23;22.67;;;11.52;;
27213;SDS011;14723;55.814;37.460;2022-11-20T15:41:28;24.90;;;11.23;;
27213;SDS011;14723;55.814;37.460;2022-11-20T15:44:33;22.48;;;10.90;;
27213;SDS011;14723;55.814;37.460;2022-11-20T15:47:39;26.92;;;11.18;;
27213;SDS011;14723;55.814;37.460;2022-11-20T15:50:46;22.17;;;10.60;;
27213;SDS011;14723;55.814;37.460;2022-11-20T15:53:57;23.77;;;10.75;;
27213;SDS011;14723;55.814;37.460;2022-11-20T15:57:02;21.58;;;9.55;;
27213;SDS011;14723;55.814;37.460;2022-11-20T16:00:09;24.38;;;11.98;;
27213;SDS011;14723;55.814;37.460;2022-11-20T16:03:15;22.70;;;11.70;;
27213;SDS011;14723;55.814;37.460;2022-11-20T16:06:20;21.85;;;10.63;;
27213;SDS011;14723;55.814;37.460;2022-11-20T16:09:28;24.90;;;11.38;;
27213;SDS011;14723;55.814;37.460;2022-11-20T16:12:33;20.98;;;10.82;;
27213;SDS011;14723;55.814;37.460;2022-11-20T16:15:51;22.92;;;10.82;;
27213;SDS011;14723;55.814;37.460;2022-11-20T16:18:57;27.20;;;12.15;;
27213;SDS011;14723;55.814;37.460;2022-11-20T16:22:02;25.60;;;12.35;;
27213;SDS011;14723;55.814;37.460;2022-11-20T16:25:10;24.02;;;11.45;;
27213;SDS011;14723;55.814;37.460;2022-11-20T16:28:16;22.42;;;11.63;;
27213;SDS011;14723;55.814;37.460;2022-11-20T16:31:21;25.05;;;11.05;;
27213;SDS011;14723;55.814;37.460;2022-11-20T16:34:26;23.70;;;11.73;;
27213;SDS011;14723;55.814;37.460;2022-11-20T16:37:32;27.63;;;11.75;;
27213;SDS011;14723;55.814;37.460;2022-11-20T16:40:40;42.05;;;12.65;;
27213;SDS011;14723;55.814;37.460;2022-11-20T16:43:46;26.42;;;10.82;;
27213;SDS011;14723;55.814;37.460;2022-11-20T16:46:52;25.42;;;11.98;;
27213;SDS011;14723;55.814;37.460;2022-11-20T16:49:57;25.25;;;11.90;;
27213;SDS011;14723;55.814;37.460;2022-11-20T16:53:04;25.77;;;12.07;;
27213;SDS011;14723;55.814;37.460;2022-11-20T16:56:12;26.63;;;12.75;;
27213;SDS011;14723;55.814;37.460;2022-11-20T16:59:18;24.95;;;12.02;;
27213;SDS011;14723;55.814;37.460;2022-11-20T17:02:23;25.23;;;11.98;;
27213;SDS011;14723;55.814;37.460;2022-11-20T17:05:28;24.73;;;12.25;;
27213;SDS011;14723;55.814;37.460;2022-11-20T17:08:34;25.73;;;12.13;;
27213;SDS011;14723;55.814;37.460;2022-11-20T17:11:42;25.13;;;12.45;;
27213;SDS011;14723;55.814;37.460;2022-11-20T17:14:47;26.75;;;12.32;;
27213;SDS011;14723;55.814;37.460;2022-11-20T17:17:52;24.25;;;11.98;;
27213;SDS011;14723;55.814;37.460;2022-11-20T17:20:57;25.85;;;12.63;;
27213;SDS011;14723;55.814;37.460;2022-11-20T17:27:13;24.75;;;11.57;;
27213;SDS011;14723;55.814;37.460;2022-11-20T17:30:18;26.55;;;12.00;;
27213;SDS011;14723;55.814;37.460;2022-11-20T17:33:24;27.73;;;12.18;;
27213;SDS011;14723;55.814;37.460;2022-11-20T17:36:29;27.08;;;12.75;;
27213;SDS011;14723;55.814;37.460;2022-11-20T17:39:35;27.80;;;11.70;;
27213;SDS011;14723;55.814;37.460;2022-11-20T17:42:44;26.70;;;13.07;;
27213;SDS011;14723;55.814;37.460;2022-11-20T17:45:49;28.02;;;12.43;;
27213;SDS011;14723;55.814;37.460;2022-11-20T17:48:54;25.77;;;12.52;;
27213;SDS011;14723;55.814;37.460;2022-11-20T17:52:00;26.00;;;11.88;;
27213;SDS011;14723;55.814;37.460;2022-11-20T17:55:05;27.67;;;12.25;;
27213;SDS011;14723;55.814;37.460;2022-11-20T17:58:13;27.08;;;12.65;;
27213;SDS011;14723;55.814;37.460;2022-11-20T18:01:16;24.15;;;12.50;;
27213;SDS011;14723;55.814;37.460;2022-11-20T18:04:22;29.70;;;13.70;;
27213;SDS011;14723;55.814;37.460;2022-11-20T18:07:27;28.33;;;11.90;;
27213;SDS011;14723;55.814;37.460;2022-11-20T18:10:37;25.65;;;12.20;;
27213;SDS011;14723;55.814;37.460;2022-11-20T18:13:46;27.50;;;12.07;;
27213;SDS011;14723;55.814;37.460;2022-11-20T18:17:05;24.63;;;11.60;;
27213;SDS011;14723;55.814;37.460;2022-11-20T18:20:11;22.27;;;11.40;;
27213;SDS011;14723;55.814;37.460;2022-11-20T18:23:36;22.73;;;11.02;;
27213;SDS011;14723;55.814;37.460;2022-11-20T18:26:42;22.63;;;11.30;;
27213;SDS011;14723;55.814;37.460;2022-11-20T18:29:50;23.45;;;12.15;;
27213;SDS011;14723;55.814;37.460;2022-11-20T18:32:55;24.83;;;11.73;;
27213;SDS011;14723;55.814;37.460;2022-11-20T18:36:07;22.67;;;11.23;;